McChord Air Force Base
KTCM : now visible

Airfield :











YOU CAN JOIN US ON...

 
LOGIN :

Register | Disclaimer

   EN    FR    IT 

 









Legend :    VFR   Marginal VFR   IFR   Intensive IFR   Very Intensive IFR
Visi :
Ceiling :
>= 8 km
>= 3000ft
5 to 8 km
1000 to 3000 ft
1500m to 5 km
500 to 1000 ft
800 to 1500m
200 to 500 ft
< 800m
< 200 ft
Symbols :   Thunderstorms  Fog  Heavy snow  Heavy precipitations  Wind > 20 kt







- Airport Elevation : 322 ft


KTCM - McChord Air Force Base

CURRENT METAR :
  • 230758Z 00000KT 10SM CLR 13/11 A3003 RMK SLP167 WND DATA ESTMD

EXPIRED METARs :
  • 230658Z 00000KT 10SM CLR 14/12 A3003 RMK SLP169 WND DATA ESTMD
  • 230558Z 00000KT 10SM CLR 14/12 A3004 RMK SLP170 WND DATA ESTMD

TAF TAF KTCM
Valid from the 23 at 05:00 until the 24 at 11:00 UTC


230500Z 2305/2411 VRB06KT 9999 SKC QNH2998INS
BECMG 2312/2313 02006KT 9999 SCT020 BKN100 QNH2997INS
BECMG 2317/2318 34009KT 9999 SCT100 BKN200 QNH2989INS
BECMG 2405/2406 26006KT 9999 BKN100 QNH2991INS TX24/2323Z TN12/2313Z
No reported NOTAMs for that airfield.



MET'MAP, your aeronautical weather chart ! - Copyright ORBIFLY December 2007 - Disclaimer

ORBIFLY MET'MAP TEAM :

Programming & Development : Alexandra Zaïnal
Concept & Development : Baudouin d'Aumeries
Co-Development & Prog : Marc-Olivier Méhu
Technical & hardware support : Manuel Goepfert

Contact : metmap@orbifly.com




SOURCES & CREDITS :

   NOAA       Earth
Advisory